Time;durP1;ratioP1;P1;durP2;ratioP2;P2;SDS_P1;SDS_P2;PMS_P1;PMS_P2;Temp;Humidity;BMP_temperature;BMP_pressure;BME280_temperature;BME280_humidity;BME280_pressure;Samples;Min_cycle;Max_cycle;Signal;HPM_P1;HPM_P2
2024/01/05 00:01:58;;;;;;;24.42;6.00;;;8.00;99.90;;;;;;5058640;28;20033;-71
2024/01/05 00:04:25;;;;;;;18.65;5.40;;;8.00;99.90;;;;;;5041171;28;20013;-72
2024/01/05 00:06:51;;;;;;;28.02;6.53;;;8.00;99.90;;;;;;5060122;28;20028;-71
2024/01/05 00:09:16;;;;;;;34.15;6.53;;;8.00;99.90;;;;;;5042828;28;20024;-71
2024/01/05 00:11:42;;;;;;;26.85;6.60;;;8.00;99.90;;;;;;5052322;28;20043;-70
2024/01/05 00:14:08;;;;;;;28.33;6.93;;;8.00;99.90;;;;;;5036894;28;20047;-71
2024/01/05 00:16:33;;;;;;;25.85;6.60;;;8.00;99.90;;;;;;5054093;28;20055;-72
2024/01/05 00:18:59;;;;;;;24.23;6.03;;;8.00;99.90;;;;;;5061127;28;20622;-70
2024/01/05 00:21:26;;;;;;;29.35;7.22;;;8.00;99.90;;;;;;5059092;28;20024;-70
2024/01/05 00:23:52;;;;;;;28.92;7.18;;;8.00;99.90;;;;;;5052739;28;20090;-70
2024/01/05 00:26:18;;;;;;;25.50;7.45;;;8.00;99.90;;;;;;5057988;28;20134;-70
2024/01/05 00:28:45;;;;;;;21.02;6.70;;;8.00;99.90;;;;;;5061234;28;20021;-70
2024/01/05 00:31:12;;;;;;;30.08;8.02;;;8.00;99.90;;;;;;5055397;28;20039;-70
2024/01/05 00:33:39;;;;;;;28.00;6.85;;;8.00;99.90;;;;;;5053083;28;20025;-70
2024/01/05 00:36:05;;;;;;;26.85;7.63;;;8.00;99.90;;;;;;5039250;28;20032;-70
2024/01/05 00:38:31;;;;;;;28.95;7.65;;;8.00;99.90;;;;;;5054562;28;20434;-70
2024/01/05 00:40:57;;;;;;;28.50;7.22;;;8.00;99.90;;;;;;5042856;28;20009;-70
2024/01/05 00:43:22;;;;;;;26.40;7.68;;;8.00;99.90;;;;;;5057091;28;20478;-70
2024/01/05 00:45:48;;;;;;;32.15;8.80;;;8.10;99.90;;;;;;5052418;28;20031;-70
2024/01/05 00:48:13;;;;;;;26.77;7.97;;;8.10;99.90;;;;;;5041003;28;20017;-70
2024/01/05 00:50:39;;;;;;;21.10;8.32;;;8.10;99.90;;;;;;5046528;28;20482;-71
2024/01/05 00:53:05;;;;;;;29.65;8.43;;;8.10;99.90;;;;;;5042631;28;20029;-71
2024/01/05 00:55:30;;;;;;;31.40;8.98;;;8.10;99.90;;;;;;5058818;28;20478;-71
2024/01/05 00:57:56;;;;;;;32.40;8.80;;;8.10;99.90;;;;;;5052845;28;20023;-71
2024/01/05 01:00:22;;;;;;;31.88;8.82;;;8.10;99.90;;;;;;5038660;28;20546;-71
2024/01/05 01:02:47;;;;;;;29.90;8.73;;;8.10;99.90;;;;;;5060869;28;20028;-70
2024/01/05 01:05:13;;;;;;;24.45;8.65;;;8.10;99.90;;;;;;5050623;28;20173;-71
2024/01/05 01:07:39;;;;;;;23.13;8.05;;;8.10;99.90;;;;;;5052706;28;20028;-71
2024/01/05 01:10:05;;;;;;;26.42;8.60;;;8.10;99.90;;;;;;5020591;28;20398;-71
2024/01/05 01:12:31;;;;;;;28.65;8.20;;;8.10;99.90;;;;;;5062905;28;20032;-71
2024/01/05 01:14:57;;;;;;;37.97;9.57;;;8.10;99.90;;;;;;5052334;28;20032;-71
2024/01/05 01:17:22;;;;;;;29.50;7.97;;;8.10;99.90;;;;;;5042350;28;20568;-71
2024/01/05 01:19:49;;;;;;;25.33;8.63;;;8.10;99.90;;;;;;5058398;28;20089;-70
2024/01/05 01:22:15;;;;;;;28.77;8.63;;;8.10;99.90;;;;;;5052717;28;20020;-71
2024/01/05 01:24:40;;;;;;;28.38;8.77;;;8.00;99.90;;;;;;5045873;28;20074;-71
2024/01/05 01:27:06;;;;;;;23.00;8.13;;;8.10;99.90;;;;;;5064249;28;20440;-71
2024/01/05 01:29:32;;;;;;;35.00;9.25;;;8.00;99.90;;;;;;5054553;28;20055;-71
2024/01/05 01:31:57;;;;;;;21.70;8.55;;;8.00;99.90;;;;;;5052389;28;20072;-70
2024/01/05 01:34:23;;;;;;;29.88;8.23;;;8.00;99.90;;;;;;5062930;28;20028;-71
2024/01/05 01:36:50;;;;;;;27.60;7.35;;;8.00;99.90;;;;;;5054179;28;20025;-71
2024/01/05 01:39:16;;;;;;;27.05;8.05;;;8.00;99.90;;;;;;5060136;28;20506;-71
2024/01/05 01:41:42;;;;;;;31.35;7.97;;;8.00;99.90;;;;;;5056414;28;20040;-71
2024/01/05 01:44:08;;;;;;;23.13;7.55;;;8.00;99.90;;;;;;5051907;28;20017;-71
2024/01/05 01:46:36;;;;;;;26.60;7.80;;;8.00;99.90;;;;;;5057973;28;20087;-71
2024/01/05 01:49:04;;;;;;;31.10;7.90;;;7.90;99.90;;;;;;5059716;28;20108;-71
2024/01/05 01:51:31;;;;;;;25.55;7.60;;;7.90;99.90;;;;;;5053168;28;20039;-71
2024/01/05 01:53:58;;;;;;;21.42;6.90;;;7.90;99.90;;;;;;5034331;28;20036;-71
2024/01/05 01:56:24;;;;;;;21.67;6.55;;;7.90;99.90;;;;;;5060130;28;20029;-71
2024/01/05 01:58:50;;;;;;;29.73;6.20;;;7.90;99.90;;;;;;5057624;28;20047;-71
2024/01/05 02:01:16;;;;;;;23.83;5.43;;;7.90;99.90;;;;;;5051798;28;20028;-71
2024/01/05 02:03:42;;;;;;;23.15;5.93;;;7.90;99.90;;;;;;5056640;28;20071;-71
2024/01/05 02:06:08;;;;;;;23.42;5.35;;;8.00;99.90;;;;;;5056377;28;20094;-71
2024/01/05 02:08:34;;;;;;;19.45;5.07;;;8.00;99.90;;;;;;5053901;28;20477;-71
2024/01/05 02:10:59;;;;;;;22.67;5.07;;;8.00;99.90;;;;;;5052287;28;20413;-71
2024/01/05 02:13:25;;;;;;;18.67;4.97;;;8.00;99.90;;;;;;5033410;28;20865;-71
2024/01/05 02:15:51;;;;;;;27.65;5.45;;;8.10;99.90;;;;;;5058354;28;20029;-71
2024/01/05 02:18:16;;;;;;;16.33;4.70;;;8.10;99.90;;;;;;5059966;28;20778;-71
2024/01/05 02:20:46;;;;;;;25.48;4.65;;;8.20;99.90;;;;;;5033506;28;20516;-71
2024/01/05 02:23:22;;;;;;;15.90;4.27;;;8.20;99.90;;;;;;5055780;28;20593;-72
2024/01/05 02:25:48;;;;;;;17.02;3.83;;;8.20;99.90;;;;;;5045425;28;20051;-71
2024/01/05 02:28:14;;;;;;;16.73;4.72;;;8.20;99.90;;;;;;5061313;28;20031;-71
2024/01/05 02:30:40;;;;;;;19.05;4.32;;;8.30;99.90;;;;;;5037219;28;20016;-71
2024/01/05 02:33:05;;;;;;;24.40;4.25;;;8.30;99.90;;;;;;5060380;28;20025;-71
2024/01/05 02:35:31;;;;;;;18.75;3.92;;;8.30;99.90;;;;;;5063426;28;20027;-71
2024/01/05 02:37:56;;;;;;;16.23;3.42;;;8.40;99.90;;;;;;5049676;28;20364;-71
2024/01/05 02:40:22;;;;;;;18.42;4.32;;;8.40;99.90;;;;;;5044634;28;20052;-71
2024/01/05 02:42:48;;;;;;;18.90;4.18;;;8.40;99.90;;;;;;5055171;28;20024;-70
2024/01/05 02:45:13;;;;;;;15.48;4.00;;;8.40;99.90;;;;;;5058152;28;20558;-71
2024/01/05 02:47:39;;;;;;;16.38;3.40;;;8.40;99.90;;;;;;5063740;28;20489;-71
2024/01/05 02:50:05;;;;;;;17.63;3.63;;;8.40;99.90;;;;;;5040216;28;20029;-71
2024/01/05 02:52:31;;;;;;;19.65;3.90;;;8.50;99.90;;;;;;5055334;28;20025;-69
2024/01/05 02:54:56;;;;;;;19.83;4.10;;;8.50;99.90;;;;;;5061658;28;20051;-70
2024/01/05 02:57:22;;;;;;;24.67;3.55;;;8.50;99.90;;;;;;5044692;28;20484;-70
2024/01/05 02:59:47;;;;;;;15.55;3.20;;;8.50;99.90;;;;;;5054765;28;20066;-69
2024/01/05 03:02:13;;;;;;;18.33;3.17;;;8.50;99.90;;;;;;5057659;28;20394;-70
2024/01/05 03:04:43;;;;;;;12.85;2.97;;;8.50;99.90;;;;;;5062354;28;20051;-72
2024/01/05 03:07:09;;;;;;;19.30;3.28;;;8.50;99.90;;;;;;5041530;28;20112;-71
2024/01/05 03:09:34;;;;;;;13.80;2.75;;;8.60;99.90;;;;;;5062752;28;20099;-70
2024/01/05 03:12:00;;;;;;;19.50;4.07;;;8.60;99.90;;;;;;5052888;28;20108;-70
2024/01/05 03:14:25;;;;;;;14.52;3.38;;;8.60;99.90;;;;;;5058500;28;20478;-70
2024/01/05 03:16:51;;;;;;;14.95;3.10;;;8.60;99.90;;;;;;5054634;28;20025;-70
2024/01/05 03:19:17;;;;;;;12.90;3.35;;;8.60;99.90;;;;;;5060525;28;20566;-69
2024/01/05 03:21:42;;;;;;;19.98;3.47;;;8.60;99.90;;;;;;5062319;28;20033;-70
2024/01/05 03:24:08;;;;;;;11.48;2.65;;;8.60;99.90;;;;;;5036453;28;20016;-71
2024/01/05 03:26:34;;;;;;;15.15;3.25;;;8.60;99.90;;;;;;5056689;28;20029;-70
2024/01/05 03:29:01;;;;;;;15.05;3.15;;;8.60;99.90;;;;;;5062592;28;20048;-70
2024/01/05 03:31:26;;;;;;;13.75;2.83;;;8.60;99.90;;;;;;5058184;28;20070;-70
2024/01/05 03:33:52;;;;;;;12.40;3.13;;;8.60;99.90;;;;;;5054115;28;20029;-71
2024/01/05 03:36:18;;;;;;;15.95;3.15;;;8.60;99.90;;;;;;5060492;28;20074;-71
2024/01/05 03:38:43;;;;;;;18.98;3.25;;;8.70;99.90;;;;;;5040721;28;20106;-70
2024/01/05 03:41:09;;;;;;;17.05;3.42;;;8.60;99.90;;;;;;5033901;28;20024;-71
2024/01/05 03:43:35;;;;;;;12.98;3.80;;;8.60;99.90;;;;;;5036899;28;20024;-72
2024/01/05 03:46:00;;;;;;;15.85;3.50;;;8.60;99.90;;;;;;5041999;28;20545;-71
2024/01/05 03:48:26;;;;;;;19.35;4.13;;;8.60;99.90;;;;;;5038101;28;20024;-72
2024/01/05 03:50:52;;;;;;;11.93;3.08;;;8.50;99.90;;;;;;5032355;28;20022;-71
2024/01/05 03:53:18;;;;;;;15.90;3.55;;;8.50;99.90;;;;;;5036355;28;20074;-71
2024/01/05 03:55:43;;;;;;;18.25;3.25;;;8.50;99.90;;;;;;5033839;28;20029;-70
2024/01/05 03:58:09;;;;;;;15.68;3.55;;;8.50;99.90;;;;;;5042531;28;20021;-70
2024/01/05 04:00:35;;;;;;;18.00;3.60;;;8.50;99.90;;;;;;5039799;28;20032;-71
2024/01/05 04:03:00;;;;;;;16.05;3.20;;;8.50;99.90;;;;;;5033955;28;20210;-71
2024/01/05 04:05:26;;;;;;;12.95;3.03;;;8.50;99.90;;;;;;5044185;28;20470;-70
2024/01/05 04:07:52;;;;;;;13.40;2.78;;;8.50;99.90;;;;;;5032280;28;20569;-71
2024/01/05 04:10:18;;;;;;;11.18;2.78;;;8.50;99.90;;;;;;5039085;28;20029;-71
2024/01/05 04:12:43;;;;;;;14.75;3.22;;;8.50;99.90;;;;;;5031737;28;20032;-71
2024/01/05 04:15:09;;;;;;;19.58;3.53;;;8.60;99.90;;;;;;5041751;28;20021;-72
2024/01/05 04:17:35;;;;;;;15.60;3.10;;;8.50;99.90;;;;;;5036140;28;20029;-71
2024/01/05 04:20:00;;;;;;;10.68;3.00;;;8.50;99.90;;;;;;5033683;28;20462;-71
2024/01/05 04:22:30;;;;;;;15.57;3.50;;;8.60;99.90;;;;;;5041576;28;20037;-71
2024/01/05 04:24:58;;;;;;;13.33;3.30;;;8.60;99.90;;;;;;5039909;28;20028;-71
2024/01/05 04:27:23;;;;;;;14.07;2.63;;;8.50;99.90;;;;;;5034007;28;20024;-71
2024/01/05 04:29:49;;;;;;;10.85;2.50;;;8.50;99.90;;;;;;5036935;28;20558;-72
2024/01/05 04:32:14;;;;;;;17.10;3.20;;;8.50;99.90;;;;;;5041836;28;20363;-72
2024/01/05 04:34:40;;;;;;;10.30;2.45;;;8.50;99.90;;;;;;5035679;28;20799;-72
2024/01/05 04:37:06;;;;;;;14.35;2.88;;;8.60;99.90;;;;;;5033729;28;20041;-71
2024/01/05 04:39:31;;;;;;;12.30;3.00;;;8.60;99.90;;;;;;5053073;28;20465;-71
2024/01/05 04:41:57;;;;;;;13.68;2.35;;;8.60;99.90;;;;;;5059547;28;20104;-72
2024/01/05 04:44:23;;;;;;;8.18;2.90;;;8.60;99.90;;;;;;5052973;28;20062;-72
2024/01/05 04:46:48;;;;;;;10.57;2.42;;;8.60;99.90;;;;;;5055852;28;20032;-71
2024/01/05 04:49:15;;;;;;;13.15;3.10;;;8.60;99.90;;;;;;5061110;28;20755;-71
2024/01/05 04:51:40;;;;;;;8.93;2.45;;;8.60;99.90;;;;;;5037253;28;20029;-71
2024/01/05 04:54:06;;;;;;;11.85;2.28;;;8.60;99.90;;;;;;5052932;28;20032;-71
2024/01/05 04:56:31;;;;;;;12.45;2.90;;;8.60;99.90;;;;;;5042465;28;20032;-72
2024/01/05 04:58:57;;;;;;;14.65;2.55;;;8.60;99.90;;;;;;5041461;28;20035;-71
2024/01/05 05:01:23;;;;;;;7.57;2.45;;;8.60;99.90;;;;;;5052516;28;20020;-71
2024/01/05 05:03:48;;;;;;;15.18;2.80;;;8.60;99.90;;;;;;5056484;28;20443;-71
2024/01/05 05:06:14;;;;;;;11.35;2.88;;;8.60;99.90;;;;;;5056903;28;20038;-72
2024/01/05 05:08:40;;;;;;;8.55;2.55;;;8.60;99.90;;;;;;5055279;28;20013;-72
2024/01/05 05:11:06;;;;;;;12.25;2.40;;;8.60;99.90;;;;;;5052357;28;20025;-72
2024/01/05 05:13:31;;;;;;;12.38;2.50;;;8.60;99.90;;;;;;5052649;28;20021;-70
2024/01/05 05:15:57;;;;;;;14.85;2.30;;;8.60;99.90;;;;;;5057983;28;20028;-71
2024/01/05 05:18:23;;;;;;;13.52;2.65;;;8.60;99.90;;;;;;5029177;28;20025;-70
2024/01/05 05:20:48;;;;;;;9.85;2.10;;;8.60;99.90;;;;;;5060002;28;20259;-71
2024/01/05 05:23:14;;;;;;;11.48;1.95;;;8.50;99.90;;;;;;5059112;28;20379;-70
2024/01/05 05:25:40;;;;;;;10.40;1.92;;;8.60;99.90;;;;;;5052586;28;20017;-70
2024/01/05 05:28:06;;;;;;;11.60;2.45;;;8.50;99.90;;;;;;5038367;28;20086;-70
2024/01/05 05:30:32;;;;;;;10.30;2.33;;;8.60;99.90;;;;;;5060166;28;20025;-70
2024/01/05 05:32:57;;;;;;;10.90;2.42;;;8.60;99.90;;;;;;5054587;28;20884;-70
2024/01/05 05:35:23;;;;;;;9.23;2.17;;;8.50;99.90;;;;;;5052278;28;20108;-70
2024/01/05 05:37:49;;;;;;;11.25;2.20;;;8.50;99.90;;;;;;5060440;28;20021;-70
2024/01/05 05:40:14;;;;;;;9.07;2.33;;;8.50;99.90;;;;;;5046226;28;20051;-70
2024/01/05 05:42:40;;;;;;;10.23;2.33;;;8.60;99.90;;;;;;5042474;28;20029;-70
2024/01/05 05:45:06;;;;;;;7.95;2.17;;;8.50;99.90;;;;;;5056685;28;20025;-70
2024/01/05 05:47:32;;;;;;;11.00;2.58;;;8.50;99.90;;;;;;5052167;28;20490;-70
2024/01/05 05:49:57;;;;;;;7.60;2.22;;;8.50;99.90;;;;;;5057680;28;20031;-70
2024/01/05 05:52:23;;;;;;;8.93;2.03;;;8.50;99.90;;;;;;5060803;28;20092;-70
2024/01/05 05:54:49;;;;;;;6.93;1.90;;;8.50;99.90;;;;;;5052324;28;20032;-70
2024/01/05 05:57:14;;;;;;;13.15;2.28;;;8.50;99.90;;;;;;5054164;28;20029;-70
2024/01/05 05:59:41;;;;;;;12.48;2.03;;;8.60;99.90;;;;;;5063882;28;20033;-70
2024/01/05 06:02:07;;;;;;;10.55;1.88;;;8.50;99.90;;;;;;5060407;28;20048;-70
2024/01/05 06:04:33;;;;;;;12.18;2.13;;;8.50;99.90;;;;;;5050406;28;20354;-70
2024/01/05 06:06:58;;;;;;;11.38;2.53;;;8.50;99.90;;;;;;5058304;28;20647;-70
2024/01/05 06:09:26;;;;;;;11.65;2.72;;;8.50;99.90;;;;;;5056010;28;20037;-71
2024/01/05 06:11:51;;;;;;;7.00;1.58;;;8.40;99.90;;;;;;5065829;28;20071;-71
2024/01/05 06:14:17;;;;;;;6.95;1.77;;;8.40;99.90;;;;;;5061479;28;20013;-69
2024/01/05 06:16:43;;;;;;;10.23;2.30;;;8.40;99.90;;;;;;5063398;28;20417;-70
2024/01/05 06:19:09;;;;;;;5.30;1.70;;;8.50;99.90;;;;;;5056696;28;20032;-71
2024/01/05 06:21:35;;;;;;;8.05;1.60;;;8.50;99.90;;;;;;5038831;28;20053;-71
2024/01/05 06:24:01;;;;;;;13.20;2.22;;;8.50;99.90;;;;;;5063838;28;20017;-71
2024/01/05 06:26:26;;;;;;;12.30;2.25;;;8.50;99.90;;;;;;5060255;28;20074;-72
2024/01/05 06:28:52;;;;;;;12.07;1.73;;;8.50;99.90;;;;;;5055682;28;20421;-71
2024/01/05 06:31:18;;;;;;;6.05;1.77;;;8.50;99.90;;;;;;5048948;28;20025;-71
2024/01/05 06:33:43;;;;;;;9.50;1.80;;;8.50;99.90;;;;;;5037568;28;20486;-71
2024/01/05 06:36:09;;;;;;;6.72;1.48;;;8.60;99.90;;;;;;5062683;28;20020;-70
2024/01/05 06:38:34;;;;;;;7.90;1.70;;;8.60;99.90;;;;;;5062078;28;20417;-71
2024/01/05 06:41:00;;;;;;;8.55;1.70;;;8.60;99.90;;;;;;5028080;28;20152;-70
2024/01/05 06:43:25;;;;;;;10.43;2.22;;;8.60;99.90;;;;;;5050792;28;20115;-71
2024/01/05 06:45:51;;;;;;;6.57;2.15;;;8.60;99.90;;;;;;5055111;28;20070;-71
2024/01/05 06:48:17;;;;;;;9.35;1.95;;;8.60;99.90;;;;;;5060730;28;20525;-71
2024/01/05 06:50:43;;;;;;;8.88;1.70;;;8.60;99.90;;;;;;5062884;28;20028;-70
2024/01/05 06:53:08;;;;;;;6.68;1.70;;;8.60;99.90;;;;;;5058046;28;20025;-71
2024/01/05 06:55:34;;;;;;;11.52;1.92;;;8.60;99.90;;;;;;5052284;28;20197;-71
2024/01/05 06:58:01;;;;;;;10.38;2.20;;;8.60;99.90;;;;;;5060171;28;20485;-71
2024/01/05 07:00:28;;;;;;;7.43;2.25;;;8.60;99.90;;;;;;5050276;28;20024;-71
2024/01/05 07:02:54;;;;;;;2.50;0.80;;;8.70;99.90;;;;;;5054922;28;20033;-70
2024/01/05 07:05:20;;;;;;;8.23;1.80;;;8.60;99.90;;;;;;5047339;28;20319;-71
2024/01/05 07:07:46;;;;;;;4.38;1.92;;;8.60;99.90;;;;;;5026940;28;20783;-71
2024/01/05 07:10:11;;;;;;;9.30;0.45;;;8.60;99.90;;;;;;5040218;28;20029;-70
2024/01/05 07:12:38;;;;;;;0.05;0.05;;;8.60;99.90;;;;;;5035114;28;20050;-70
2024/01/05 07:15:05;;;;;;;7.95;1.80;;;8.60;99.90;;;;;;5038741;28;20025;-70
2024/01/05 07:17:31;;;;;;;7.60;2.03;;;8.60;99.90;;;;;;5060682;28;20673;-71
2024/01/05 07:19:57;;;;;;;6.05;1.40;;;8.60;99.90;;;;;;5048672;28;20033;-71
2024/01/05 07:22:22;;;;;;;6.35;1.67;;;8.60;99.90;;;;;;5063982;28;20097;-71
2024/01/05 07:24:48;;;;;;;7.10;1.88;;;8.60;99.90;;;;;;5029928;28;20064;-72
2024/01/05 07:27:16;;;;;;;11.73;2.17;;;8.60;99.90;;;;;;5059952;28;20086;-71
2024/01/05 07:29:42;;;;;;;8.48;1.70;;;8.60;99.90;;;;;;5058200;28;20039;-71
2024/01/05 07:32:08;;;;;;;6.65;1.60;;;8.60;99.90;;;;;;5036135;28;20398;-71
2024/01/05 07:34:33;;;;;;;10.52;1.60;;;8.60;99.90;;;;;;5061155;28;20051;-71
2024/01/05 07:36:59;;;;;;;7.07;1.83;;;8.60;99.90;;;;;;5043521;28;20028;-71
2024/01/05 07:39:25;;;;;;;5.95;1.58;;;8.60;99.90;;;;;;5048880;28;20090;-71
2024/01/05 07:41:50;;;;;;;11.13;1.70;;;8.60;99.90;;;;;;5041513;28;20720;-72
2024/01/05 07:44:19;;;;;;;10.85;2.30;;;8.60;99.90;;;;;;5046288;28;20025;-72
2024/01/05 07:46:45;;;;;;;9.40;1.88;;;8.60;99.90;;;;;;5038017;28;20029;-71
2024/01/05 07:49:11;;;;;;;3.58;0.93;;;8.60;99.90;;;;;;5054008;28;20025;-71
2024/01/05 07:51:36;;;;;;;5.60;1.08;;;8.60;99.90;;;;;;5058709;28;20079;-71
2024/01/05 07:54:02;;;;;;;4.03;1.23;;;8.60;99.90;;;;;;5037877;28;20033;-71
2024/01/05 07:56:28;;;;;;;3.95;1.00;;;8.60;99.90;;;;;;5041040;28;20039;-71
2024/01/05 07:58:53;;;;;;;3.50;0.93;;;8.50;99.90;;;;;;5067810;28;20539;-71
2024/01/05 08:01:20;;;;;;;3.13;0.60;;;8.50;99.90;;;;;;5039409;28;20729;-71
2024/01/05 08:03:47;;;;;;;1.20;0.40;;;8.50;99.90;;;;;;5047564;28;20039;-71
2024/01/05 08:06:17;;;;;;;1.27;0.40;;;8.50;99.90;;;;;;5030077;28;20021;-71
2024/01/05 08:08:47;;;;;;;1.48;0.60;;;8.50;99.90;;;;;;5046242;28;20032;-71
2024/01/05 08:11:14;;;;;;;3.00;0.30;;;8.40;99.90;;;;;;5057648;28;20036;-71
2024/01/05 08:13:43;;;;;;;1.08;0.30;;;8.40;99.90;;;;;;5044097;28;20020;-73
2024/01/05 08:16:10;;;;;;;0.90;0.47;;;8.40;99.90;;;;;;5040895;28;20057;-71
2024/01/05 08:18:36;;;;;;;0.63;0.40;;;8.40;99.90;;;;;;5032826;28;20105;-71
2024/01/05 08:21:03;;;;;;;0.55;0.20;;;8.40;99.90;;;;;;5030244;28;20025;-71
2024/01/05 08:23:30;;;;;;;0.93;0.40;;;8.40;99.90;;;;;;5011532;28;20021;-70
2024/01/05 08:25:55;;;;;;;1.33;0.40;;;8.40;99.90;;;;;;5021913;28;20059;-71
2024/01/05 08:28:21;;;;;;;1.88;0.68;;;8.30;99.90;;;;;;5062515;28;20052;-71
2024/01/05 08:30:47;;;;;;;2.63;0.60;;;8.30;99.90;;;;;;5057524;28;20405;-71
2024/01/05 08:33:13;;;;;;;2.45;0.45;;;8.30;99.90;;;;;;5057932;28;20071;-71
2024/01/05 08:35:39;;;;;;;1.60;0.70;;;8.30;99.90;;;;;;5048277;28;20037;-71
2024/01/05 08:38:05;;;;;;;0.45;0.20;;;8.30;99.90;;;;;;5058351;28;20020;-70
2024/01/05 08:40:30;;;;;;;1.85;0.45;;;8.30;99.90;;;;;;5060895;28;20485;-70
2024/01/05 08:42:58;;;;;;;1.17;0.50;;;8.30;99.90;;;;;;5053366;28;20028;-70
2024/01/05 08:45:24;;;;;;;2.25;0.52;;;8.30;99.90;;;;;;5036049;28;20475;-72
2024/01/05 08:47:50;;;;;;;1.33;0.40;;;8.20;99.90;;;;;;5060744;28;20028;-71
2024/01/05 08:50:17;;;;;;;1.05;0.40;;;8.20;99.90;;;;;;5028180;28;20579;-71
2024/01/05 08:52:43;;;;;;;1.27;0.60;;;8.20;99.90;;;;;;5029088;28;20017;-70
2024/01/05 08:55:09;;;;;;;1.65;0.60;;;8.10;99.90;;;;;;5057936;28;20053;-70
2024/01/05 08:57:35;;;;;;;4.00;0.90;;;8.00;99.90;;;;;;5047644;28;20033;-71
2024/01/05 09:00:01;;;;;;;5.57;1.52;;;7.90;99.90;;;;;;5062406;28;20024;-70
2024/01/05 09:02:27;;;;;;;1.00;0.50;;;7.80;99.90;;;;;;5057550;28;20089;-70
2024/01/05 09:04:52;;;;;;;2.42;0.73;;;7.80;99.90;;;;;;5048950;28;20096;-70
2024/01/05 09:07:19;;;;;;;2.30;0.80;;;7.70;99.90;;;;;;5033951;28;20045;-70
2024/01/05 09:09:45;;;;;;;2.50;0.75;;;7.70;99.90;;;;;;5040096;28;20024;-71
2024/01/05 09:12:11;;;;;;;2.25;0.63;;;7.60;99.90;;;;;;5048414;28;20092;-70
2024/01/05 09:14:37;;;;;;;2.28;0.68;;;7.60;99.90;;;;;;5037967;28;20525;-71
2024/01/05 09:17:05;;;;;;;4.78;0.70;;;7.50;99.90;;;;;;5015182;28;20029;-71
2024/01/05 09:19:33;;;;;;;2.70;0.55;;;7.50;99.90;;;;;;5057138;28;20029;-71
2024/01/05 09:21:59;;;;;;;4.32;1.45;;;7.50;99.90;;;;;;5042043;28;20405;-70
2024/01/05 09:24:26;;;;;;;1.38;0.60;;;7.50;99.90;;;;;;5054804;28;20103;-70
2024/01/05 09:26:52;;;;;;;3.08;0.60;;;7.50;99.90;;;;;;5052289;28;20056;-71
2024/01/05 09:29:17;;;;;;;1.20;0.40;;;7.50;99.90;;;;;;5060623;28;20048;-70
2024/01/05 09:31:46;;;;;;;2.08;0.50;;;7.50;99.90;;;;;;5057979;28;20405;-70
2024/01/05 09:34:12;;;;;;;2.78;0.75;;;7.50;99.90;;;;;;5052516;28;20032;-70
2024/01/05 09:36:41;;;;;;;1.75;0.45;;;7.50;99.90;;;;;;5055679;28;20068;-71
2024/01/05 09:39:07;;;;;;;2.15;0.60;;;7.50;99.90;;;;;;5060314;28;20044;-71
2024/01/05 09:41:33;;;;;;;2.72;0.60;;;7.50;99.90;;;;;;5055214;28;20032;-70
2024/01/05 09:44:01;;;;;;;0.88;0.30;;;7.50;99.90;;;;;;5041350;28;20025;-70
2024/01/05 09:46:30;;;;;;;2.60;0.47;;;7.40;99.90;;;;;;5034411;28;20025;-71
2024/01/05 09:48:58;;;;;;;1.60;0.30;;;7.40;99.90;;;;;;5056821;28;20803;-70
2024/01/05 09:51:29;;;;;;;0.40;0.30;;;7.30;99.90;;;;;;5042313;28;20103;-70
2024/01/05 09:53:54;;;;;;;;;;;7.40;99.90;;;;;;5038614;28;20084;-70
2024/01/05 09:56:22;;;;;;;0.80;0.40;;;7.30;99.90;;;;;;5045135;28;19908;-70
2024/01/05 09:58:51;;;;;;;1.30;0.20;;;7.30;99.90;;;;;;5033541;28;20035;-72
2024/01/05 10:01:32;;;;;;;0.20;0.20;;;7.20;99.90;;;;;;5038214;28;20029;-71
2024/01/05 10:04:01;;;;;;;0.80;0.30;;;7.30;99.90;;;;;;5034011;28;20095;-70
2024/01/05 10:06:30;;;;;;;1.25;0.25;;;7.20;99.90;;;;;;5039359;28;20112;-70
2024/01/05 10:09:00;;;;;;;0.60;0.30;;;7.20;99.90;;;;;;5032173;28;20443;-70
2024/01/05 10:11:34;;;;;;;0.22;0.20;;;7.20;99.90;;;;;;5028152;28;20087;-70
2024/01/05 10:14:01;;;;;;;2.35;0.30;;;7.20;99.90;;;;;;5046460;28;20031;-70
2024/01/05 10:16:34;;;;;;;1.85;0.28;;;7.10;99.90;;;;;;5024983;28;20129;-70
2024/01/05 10:19:26;;;;;;;0.95;0.30;;;7.10;99.90;;;;;;5031189;28;20013;-69
2024/01/05 10:21:51;;;;;;;2.10;0.57;;;7.10;99.90;;;;;;5039843;28;20088;-70
2024/01/05 10:24:21;;;;;;;0.60;0.55;;;7.00;99.90;;;;;;5057533;28;20485;-70
2024/01/05 10:27:13;;;;;;;1.73;0.70;;;7.00;99.90;;;;;;5043574;28;20100;-70
2024/01/05 10:29:42;;;;;;;;;;;7.00;99.90;;;;;;5027507;28;20025;-70
2024/01/05 10:32:17;;;;;;;1.83;0.80;;;7.00;99.90;;;;;;5032982;28;19909;-69
2024/01/05 10:34:45;;;;;;;2.30;0.90;;;6.90;99.90;;;;;;5047067;28;20025;-70
2024/01/05 10:37:11;;;;;;;3.15;0.90;;;6.90;99.90;;;;;;5016197;28;20029;-69
2024/01/05 10:39:38;;;;;;;3.33;1.38;;;6.90;99.90;;;;;;5027410;28;20049;-69
2024/01/05 10:42:26;;;;;;;4.90;1.05;;;6.90;99.90;;;;;;5025627;28;20075;-70
2024/01/05 10:44:54;;;;;;;2.13;1.20;;;6.90;99.90;;;;;;5042824;28;20427;-70
2024/01/05 10:47:25;;;;;;;2.58;1.05;;;6.90;99.90;;;;;;5050722;28;20098;-69
2024/01/05 10:49:54;;;;;;;2.60;1.30;;;6.90;99.90;;;;;;5045214;28;20044;-70
2024/01/05 10:52:22;;;;;;;1.83;0.95;;;6.90;99.90;;;;;;5038284;28;20064;-69
2024/01/05 10:54:50;;;;;;;1.75;1.15;;;7.00;99.90;;;;;;5035353;28;20025;-69
2024/01/05 10:57:16;;;;;;;3.58;1.20;;;7.00;99.90;;;;;;5049301;28;20478;-70
2024/01/05 10:59:50;;;;;;;3.50;1.00;;;7.00;99.90;;;;;;5063123;28;20021;-70
2024/01/05 11:02:21;;;;;;;4.53;1.40;;;7.00;99.90;;;;;;5030559;28;20033;-70
2024/01/05 11:05:09;;;;;;;1.30;1.10;;;7.10;99.90;;;;;;5055548;28;20074;-70
2024/01/05 11:07:36;;;;;;;1.90;1.27;;;7.10;99.90;;;;;;5031302;28;20060;-70
2024/01/05 11:10:34;;;;;;;2.88;1.20;;;7.10;99.90;;;;;;5034259;28;20048;-70
2024/01/05 11:13:32;;;;;;;2.70;1.13;;;7.10;99.90;;;;;;5036397;28;20104;-70
2024/01/05 11:16:05;;;;;;;5.85;1.40;;;7.10;99.90;;;;;;5027360;28;20082;-70
2024/01/05 11:18:39;;;;;;;4.03;1.65;;;7.10;99.90;;;;;;5057649;28;20030;-70
2024/01/05 11:21:19;;;;;;;2.58;1.40;;;7.10;99.90;;;;;;5060536;28;20036;-69
2024/01/05 11:23:47;;;;;;;2.38;1.50;;;7.10;99.90;;;;;;5017671;28;20466;-70
2024/01/05 11:26:34;;;;;;;2.38;1.20;;;7.20;99.90;;;;;;5043923;28;20039;-69
2024/01/05 11:29:00;;;;;;;3.90;1.30;;;7.10;99.90;;;;;;5061472;28;20615;-69
2024/01/05 11:31:45;;;;;;;3.85;1.42;;;7.20;99.90;;;;;;5062602;28;20650;-69
2024/01/05 11:34:34;;;;;;;4.10;1.42;;;7.20;99.90;;;;;;5049641;28;20029;-69
2024/01/05 11:37:04;;;;;;;3.45;1.38;;;7.20;99.90;;;;;;5025652;28;20029;-70
2024/01/05 11:39:49;;;;;;;2.85;1.23;;;7.20;99.90;;;;;;5035228;28;20760;-70
2024/01/05 11:42:25;;;;;;;2.50;1.10;;;7.20;99.90;;;;;;5024453;28;20497;-70
2024/01/05 11:44:52;;;;;;;4.25;1.27;;;7.30;99.90;;;;;;5059641;28;20029;-70
2024/01/05 11:47:45;;;;;;;3.00;1.50;;;7.20;99.90;;;;;;5061590;28;20536;-69
2024/01/05 11:50:38;;;;;;;3.72;1.60;;;7.30;99.90;;;;;;5048099;28;20056;-69
2024/01/05 11:53:18;;;;;;;3.20;1.30;;;7.20;99.90;;;;;;5024546;28;20089;-70
2024/01/05 11:55:52;;;;;;;3.28;1.45;;;7.30;99.90;;;;;;5034901;28;20383;-70
2024/01/05 11:58:27;;;;;;;2.08;1.27;;;7.30;99.90;;;;;;5041583;28;20016;-70
2024/01/05 12:00:57;;;;;;;2.03;1.60;;;7.20;99.90;;;;;;5053426;28;20044;-70
2024/01/05 12:03:24;;;;;;;2.75;1.40;;;7.20;99.90;;;;;;5060582;28;20028;-70
2024/01/05 12:05:52;;;;;;;2.28;1.48;;;7.30;99.90;;;;;;5038686;28;20123;-70
2024/01/05 12:08:18;;;;;;;2.75;1.27;;;7.30;99.90;;;;;;5031746;28;20047;-70
2024/01/05 12:10:44;;;;;;;2.97;1.52;;;7.30;99.90;;;;;;5033700;28;20025;-70
2024/01/05 12:13:09;;;;;;;5.93;1.50;;;7.30;99.90;;;;;;5054748;28;20020;-70
2024/01/05 12:15:35;;;;;;;2.75;1.27;;;7.30;99.90;;;;;;5044141;28;20876;-70
2024/01/05 12:18:07;;;;;;;2.05;1.33;;;7.30;99.90;;;;;;5058064;28;20028;-70
2024/01/05 12:20:34;;;;;;;2.45;1.40;;;7.30;99.90;;;;;;5044006;28;20039;-71
2024/01/05 12:22:59;;;;;;;1.95;1.27;;;7.30;99.90;;;;;;5027093;28;20029;-69
2024/01/05 12:25:26;;;;;;;2.67;1.30;;;7.30;99.90;;;;;;5028479;28;20029;-69
2024/01/05 12:27:52;;;;;;;2.40;1.42;;;7.40;99.90;;;;;;5026859;28;20692;-69
2024/01/05 12:30:18;;;;;;;2.65;1.35;;;7.30;99.90;;;;;;5052177;28;20025;-69
2024/01/05 12:32:45;;;;;;;4.88;1.75;;;7.30;99.90;;;;;;5043523;28;20036;-69
2024/01/05 12:35:11;;;;;;;1.95;1.25;;;7.40;99.90;;;;;;5047278;28;20113;-69
2024/01/05 12:37:48;;;;;;;3.63;1.50;;;7.30;99.90;;;;;;5050232;28;20040;-70
2024/01/05 12:40:14;;;;;;;3.65;1.70;;;7.30;99.90;;;;;;5033533;28;20056;-69
2024/01/05 12:42:40;;;;;;;3.60;1.70;;;7.30;99.90;;;;;;5036256;28;20037;-69
2024/01/05 12:45:06;;;;;;;5.15;1.77;;;7.30;99.90;;;;;;5040525;28;20024;-71
2024/01/05 12:47:35;;;;;;;2.75;1.60;;;7.30;99.90;;;;;;5045899;28;20037;-69
2024/01/05 12:50:03;;;;;;;3.30;1.60;;;7.30;99.90;;;;;;5030994;28;20026;-69
2024/01/05 12:52:37;;;;;;;3.92;2.13;;;7.30;99.90;;;;;;5029072;28;20038;-70
2024/01/05 12:55:06;;;;;;;3.72;1.85;;;7.30;99.90;;;;;;5032622;28;20044;-69